sensor_id;sensor_type;location;lat;lon;timestamp;pressure;altitude;pressure_sealevel;temperature;humidity
12799;BME280;19250;42.646;26.980;2023-02-14T00:02:21;100386.69;;;3.19;81.57
12799;BME280;19250;42.646;26.980;2023-02-14T00:04:48;100388.00;;;3.45;81.23
12799;BME280;19250;42.646;26.980;2023-02-14T00:07:16;100396.13;;;3.41;80.33
12799;BME280;19250;42.646;26.980;2023-02-14T00:09:43;100395.75;;;3.48;80.32
12799;BME280;19250;42.646;26.980;2023-02-14T00:12:10;100393.94;;;3.49;80.44
12799;BME280;19250;42.646;26.980;2023-02-14T00:14:37;100395.63;;;3.50;79.27
12799;BME280;19250;42.646;26.980;2023-02-14T00:17:23;100390.75;;;3.59;77.95
12799;BME280;19250;42.646;26.980;2023-02-14T00:19:51;100403.13;;;3.07;81.39
12799;BME280;19250;42.646;26.980;2023-02-14T00:22:18;100400.16;;;3.30;80.55
12799;BME280;19250;42.646;26.980;2023-02-14T00:24:45;100402.63;;;2.82;83.60
12799;BME280;19250;42.646;26.980;2023-02-14T00:27:13;100406.66;;;2.72;84.38
12799;BME280;19250;42.646;26.980;2023-02-14T00:29:40;100390.25;;;3.01;83.84
12799;BME280;19250;42.646;26.980;2023-02-14T00:32:08;100395.16;;;2.56;85.25
12799;BME280;19250;42.646;26.980;2023-02-14T00:34:36;100404.19;;;1.37;95.41
12799;BME280;19250;42.646;26.980;2023-02-14T00:37:04;100400.00;;;1.13;100.00
12799;BME280;19250;42.646;26.980;2023-02-14T00:39:31;100399.78;;;1.17;100.00
12799;BME280;19250;42.646;26.980;2023-02-14T00:41:58;100392.09;;;1.13;100.00
12799;BME280;19250;42.646;26.980;2023-02-14T00:44:25;100388.03;;;1.46;100.00
12799;BME280;19250;42.646;26.980;2023-02-14T00:46:52;100395.75;;;2.06;100.00
12799;BME280;19250;42.646;26.980;2023-02-14T00:49:20;100393.31;;;2.20;99.53
12799;BME280;19250;42.646;26.980;2023-02-14T00:51:48;100385.88;;;2.66;96.53
12799;BME280;19250;42.646;26.980;2023-02-14T00:54:16;100372.72;;;2.83;94.02
12799;BME280;19250;42.646;26.980;2023-02-14T00:56:43;100367.41;;;3.02;92.60
12799;BME280;19250;42.646;26.980;2023-02-14T00:59:10;100381.34;;;3.21;90.83
12799;BME280;19250;42.646;26.980;2023-02-14T01:01:37;100364.53;;;2.72;92.60
12799;BME280;19250;42.646;26.980;2023-02-14T01:04:05;100358.16;;;2.59;94.36
12799;BME280;19250;42.646;26.980;2023-02-14T01:06:33;100365.53;;;3.04;92.62
12799;BME280;19250;42.646;26.980;2023-02-14T01:09:02;100359.31;;;2.53;91.51
12799;BME280;19250;42.646;26.980;2023-02-14T01:11:30;100370.03;;;2.13;95.72
12799;BME280;19250;42.646;26.980;2023-02-14T01:13:58;100352.72;;;2.62;93.58
12799;BME280;19250;42.646;26.980;2023-02-14T01:16:26;100344.88;;;1.70;98.08
12799;BME280;19250;42.646;26.980;2023-02-14T01:18:55;100341.03;;;1.58;100.00
12799;BME280;19250;42.646;26.980;2023-02-14T01:21:24;100352.09;;;1.26;100.00
12799;BME280;19250;42.646;26.980;2023-02-14T01:23:54;100343.97;;;1.12;100.00
12799;BME280;19250;42.646;26.980;2023-02-14T01:26:24;100334.59;;;1.45;100.00
12799;BME280;19250;42.646;26.980;2023-02-14T01:28:52;100331.91;;;1.84;100.00
12799;BME280;19250;42.646;26.980;2023-02-14T01:31:21;100332.41;;;2.47;98.18
12799;BME280;19250;42.646;26.980;2023-02-14T01:33:49;100326.16;;;2.49;95.00
12799;BME280;19250;42.646;26.980;2023-02-14T01:36:19;100315.41;;;2.18;96.03
12799;BME280;19250;42.646;26.980;2023-02-14T01:38:47;100313.94;;;2.65;94.57
12799;BME280;19250;42.646;26.980;2023-02-14T01:41:16;100318.97;;;2.87;92.11
12799;BME280;19250;42.646;26.980;2023-02-14T01:43:57;100309.75;;;2.79;90.29
12799;BME280;19250;42.646;26.980;2023-02-14T01:46:26;100309.47;;;1.58;97.36
12799;BME280;19250;42.646;26.980;2023-02-14T01:48:58;100307.75;;;2.13;98.29
12799;BME280;19250;42.646;26.980;2023-02-14T01:51:27;100291.72;;;2.71;93.45
12799;BME280;19250;42.646;26.980;2023-02-14T01:53:56;100280.38;;;2.35;95.86
12799;BME280;19250;42.646;26.980;2023-02-14T01:56:27;100268.16;;;2.68;93.73
12799;BME280;19250;42.646;26.980;2023-02-14T01:59:00;100270.41;;;2.75;93.13
12799;BME280;19250;42.646;26.980;2023-02-14T02:01:29;100276.59;;;2.92;92.14
12799;BME280;19250;42.646;26.980;2023-02-14T02:04:00;100276.88;;;3.03;91.34
12799;BME280;19250;42.646;26.980;2023-02-14T02:06:32;100279.88;;;3.12;90.21
12799;BME280;19250;42.646;26.980;2023-02-14T02:09:11;100271.75;;;3.17;88.68
12799;BME280;19250;42.646;26.980;2023-02-14T02:11:41;100278.53;;;2.54;90.44
12799;BME280;19250;42.646;26.980;2023-02-14T02:14:13;100268.88;;;2.71;92.47
12799;BME280;19250;42.646;26.980;2023-02-14T02:16:50;100276.19;;;2.99;89.59
12799;BME280;19250;42.646;26.980;2023-02-14T02:19:52;100269.19;;;3.15;88.33
12799;BME280;19250;42.646;26.980;2023-02-14T02:22:54;100273.72;;;2.79;88.71
12799;BME280;19250;42.646;26.980;2023-02-14T02:25:38;100277.00;;;2.67;92.83
12799;BME280;19250;42.646;26.980;2023-02-14T02:28:31;100272.06;;;3.11;90.79
12799;BME280;19250;42.646;26.980;2023-02-14T02:31:22;100262.75;;;3.37;87.76
12799;BME280;19250;42.646;26.980;2023-02-14T02:34:21;100264.59;;;2.35;92.25
12799;BME280;19250;42.646;26.980;2023-02-14T02:37:22;100268.00;;;2.54;93.35
12799;BME280;19250;42.646;26.980;2023-02-14T02:40:06;100264.63;;;2.69;92.91
12799;BME280;19250;42.646;26.980;2023-02-14T02:42:47;100256.09;;;2.47;95.21
12799;BME280;19250;42.646;26.980;2023-02-14T02:45:23;100250.06;;;2.62;96.13
12799;BME280;19250;42.646;26.980;2023-02-14T02:47:58;100244.53;;;2.84;95.38
12799;BME280;19250;42.646;26.980;2023-02-14T02:50:32;100239.66;;;2.93;95.55
12799;BME280;19250;42.646;26.980;2023-02-14T02:53:24;100242.59;;;2.70;95.61
12799;BME280;19250;42.646;26.980;2023-02-14T02:55:57;100244.94;;;2.25;99.90
12799;BME280;19250;42.646;26.980;2023-02-14T02:58:47;100247.50;;;2.26;100.00
12799;BME280;19250;42.646;26.980;2023-02-14T03:01:21;100236.09;;;2.43;100.00
12799;BME280;19250;42.646;26.980;2023-02-14T03:03:53;100233.19;;;2.66;98.64
12799;BME280;19250;42.646;26.980;2023-02-14T03:06:39;100229.06;;;3.10;95.32
12799;BME280;19250;42.646;26.980;2023-02-14T03:09:47;100217.38;;;3.47;93.44
12799;BME280;19250;42.646;26.980;2023-02-14T03:12:08;100217.72;;;3.72;89.47
12799;BME280;19250;42.646;26.980;2023-02-14T03:14:44;100219.31;;;3.44;90.11
12799;BME280;19250;42.646;26.980;2023-02-14T03:17:21;100220.06;;;3.14;91.04
12799;BME280;19250;42.646;26.980;2023-02-14T03:19:55;100213.72;;;3.50;89.48
12799;BME280;19250;42.646;26.980;2023-02-14T03:22:48;100208.69;;;3.76;88.11
12799;BME280;19250;42.646;26.980;2023-02-14T03:25:30;100202.84;;;3.71;86.61
12799;BME280;19250;42.646;26.980;2023-02-14T03:28:03;100207.16;;;3.88;86.27
12799;BME280;19250;42.646;26.980;2023-02-14T03:30:38;100206.13;;;3.91;84.29
12799;BME280;19250;42.646;26.980;2023-02-14T03:33:15;100197.63;;;3.85;85.11
12799;BME280;19250;42.646;26.980;2023-02-14T03:35:48;100194.91;;;3.71;84.53
12799;BME280;19250;42.646;26.980;2023-02-14T03:38:23;100192.44;;;3.68;84.76
12799;BME280;19250;42.646;26.980;2023-02-14T03:40:59;100187.53;;;3.62;84.90
12799;BME280;19250;42.646;26.980;2023-02-14T03:43:30;100192.25;;;3.24;86.06
12799;BME280;19250;42.646;26.980;2023-02-14T03:46:03;100196.63;;;3.72;84.24
12799;BME280;19250;42.646;26.980;2023-02-14T03:48:34;100188.97;;;3.37;85.90
12799;BME280;19250;42.646;26.980;2023-02-14T03:51:03;100187.44;;;3.33;87.21
12799;BME280;19250;42.646;26.980;2023-02-14T03:53:36;100197.22;;;3.15;88.95
12799;BME280;19250;42.646;26.980;2023-02-14T03:56:11;100187.44;;;3.33;88.04
12799;BME280;19250;42.646;26.980;2023-02-14T03:58:42;100187.66;;;3.12;89.16
12799;BME280;19250;42.646;26.980;2023-02-14T04:01:15;100177.31;;;3.25;87.59
12799;BME280;19250;42.646;26.980;2023-02-14T04:03:46;100164.63;;;3.16;88.32
12799;BME280;19250;42.646;26.980;2023-02-14T04:06:16;100163.38;;;3.39;88.01
12799;BME280;19250;42.646;26.980;2023-02-14T04:08:44;100165.00;;;3.57;86.20
12799;BME280;19250;42.646;26.980;2023-02-14T04:11:13;100157.50;;;3.65;84.83
12799;BME280;19250;42.646;26.980;2023-02-14T04:13:41;100158.44;;;2.68;91.19
12799;BME280;19250;42.646;26.980;2023-02-14T04:16:08;100154.53;;;2.26;96.13
12799;BME280;19250;42.646;26.980;2023-02-14T04:18:35;100154.19;;;2.49;96.87
12799;BME280;19250;42.646;26.980;2023-02-14T04:21:20;100146.34;;;2.97;93.08
12799;BME280;19250;42.646;26.980;2023-02-14T04:23:47;100141.06;;;2.97;92.44
12799;BME280;19250;42.646;26.980;2023-02-14T04:26:16;100142.91;;;2.47;94.57
12799;BME280;19250;42.646;26.980;2023-02-14T04:28:43;100143.53;;;3.00;91.86
12799;BME280;19250;42.646;26.980;2023-02-14T04:31:10;100135.81;;;3.13;89.48
12799;BME280;19250;42.646;26.980;2023-02-14T04:33:38;100134.72;;;3.01;90.08
12799;BME280;19250;42.646;26.980;2023-02-14T04:36:05;100133.69;;;3.04;90.47
12799;BME280;19250;42.646;26.980;2023-02-14T04:38:33;100125.06;;;2.69;91.86
12799;BME280;19250;42.646;26.980;2023-02-14T04:41:00;100143.03;;;2.61;91.32
12799;BME280;19250;42.646;26.980;2023-02-14T04:43:29;100139.81;;;2.39;93.27
12799;BME280;19250;42.646;26.980;2023-02-14T04:45:56;100145.38;;;2.33;93.33
12799;BME280;19250;42.646;26.980;2023-02-14T04:48:23;100139.59;;;2.43;92.99
12799;BME280;19250;42.646;26.980;2023-02-14T04:50:51;100095.81;;;2.25;92.58
12799;BME280;19250;42.646;26.980;2023-02-14T04:56:40;100136.59;;;3.15;89.33
12799;BME280;19250;42.646;26.980;2023-02-14T04:59:09;100142.47;;;3.20;87.30
12799;BME280;19250;42.646;26.980;2023-02-14T05:01:36;100126.06;;;3.15;86.84
12799;BME280;19250;42.646;26.980;2023-02-14T05:04:03;100133.00;;;3.16;86.25
12799;BME280;19250;42.646;26.980;2023-02-14T05:06:31;100142.97;;;2.62;88.94
12799;BME280;19250;42.646;26.980;2023-02-14T05:08:58;100137.50;;;2.50;89.97
12799;BME280;19250;42.646;26.980;2023-02-14T05:11:26;100147.97;;;2.00;92.21
12799;BME280;19250;42.646;26.980;2023-02-14T05:13:54;100145.72;;;1.92;94.68
12799;BME280;19250;42.646;26.980;2023-02-14T05:16:23;100148.91;;;2.16;94.09
12799;BME280;19250;42.646;26.980;2023-02-14T05:18:51;100142.47;;;2.71;90.82
12799;BME280;19250;42.646;26.980;2023-02-14T05:21:18;100149.63;;;2.85;88.71
12799;BME280;19250;42.646;26.980;2023-02-14T05:23:45;100157.41;;;2.21;92.19
12799;BME280;19250;42.646;26.980;2023-02-14T05:26:13;100161.50;;;2.09;94.08
12799;BME280;19250;42.646;26.980;2023-02-14T05:28:40;100114.78;;;1.97;94.93
12799;BME280;19250;42.646;26.980;2023-02-14T05:31:07;100144.97;;;2.57;93.06
12799;BME280;19250;42.646;26.980;2023-02-14T05:33:36;100145.75;;;2.92;90.34
12799;BME280;19250;42.646;26.980;2023-02-14T05:36:04;100141.06;;;2.97;89.72
12799;BME280;19250;42.646;26.980;2023-02-14T05:38:31;100144.81;;;2.60;92.69
12799;BME280;19250;42.646;26.980;2023-02-14T05:40:59;100143.47;;;3.17;90.88
12799;BME280;19250;42.646;26.980;2023-02-14T05:43:27;100146.97;;;3.18;89.45
12799;BME280;19250;42.646;26.980;2023-02-14T05:45:55;100139.31;;;3.13;89.13
12799;BME280;19250;42.646;26.980;2023-02-14T05:48:22;100147.28;;;3.43;87.13
12799;BME280;19250;42.646;26.980;2023-02-14T05:50:51;100147.22;;;3.13;88.01
12799;BME280;19250;42.646;26.980;2023-02-14T05:53:18;100141.19;;;3.27;88.02
12799;BME280;19250;42.646;26.980;2023-02-14T05:55:46;100142.34;;;3.68;85.44
12799;BME280;19250;42.646;26.980;2023-02-14T05:58:13;100148.00;;;3.92;83.15
12799;BME280;19250;42.646;26.980;2023-02-14T06:00:41;100150.59;;;3.78;85.08
12799;BME280;19250;42.646;26.980;2023-02-14T06:03:08;100154.47;;;4.16;82.65
12799;BME280;19250;42.646;26.980;2023-02-14T06:05:36;100147.72;;;4.26;81.74
12799;BME280;19250;42.646;26.980;2023-02-14T06:08:04;100149.19;;;4.74;79.35
12799;BME280;19250;42.646;26.980;2023-02-14T06:10:32;100159.78;;;5.03;77.75
12799;BME280;19250;42.646;26.980;2023-02-14T06:12:59;100119.69;;;4.68;76.93
12799;BME280;19250;42.646;26.980;2023-02-14T06:15:27;100152.88;;;5.28;75.37
12799;BME280;19250;42.646;26.980;2023-02-14T06:17:55;100166.56;;;4.92;76.71
12799;BME280;19250;42.646;26.980;2023-02-14T06:20:23;100160.50;;;5.33;72.92
12799;BME280;19250;42.646;26.980;2023-02-14T06:22:51;100157.59;;;5.09;75.92
12799;BME280;19250;42.646;26.980;2023-02-14T06:28:41;100146.38;;;4.91;77.81
12799;BME280;19250;42.646;26.980;2023-02-14T06:31:14;100157.72;;;4.79;80.28
12799;BME280;19250;42.646;26.980;2023-02-14T06:33:42;100148.66;;;5.53;77.19
12799;BME280;19250;42.646;26.980;2023-02-14T06:36:09;100145.44;;;6.40;72.26
12799;BME280;19250;42.646;26.980;2023-02-14T06:38:36;100143.44;;;6.31;70.70
12799;BME280;19250;42.646;26.980;2023-02-14T06:41:05;100133.56;;;7.09;66.80
12799;BME280;19250;42.646;26.980;2023-02-14T06:43:32;100130.25;;;7.18;63.42
12799;BME280;19250;42.646;26.980;2023-02-14T06:46:01;100128.28;;;6.84;63.58
12799;BME280;19250;42.646;26.980;2023-02-14T06:48:29;100126.50;;;6.72;65.50
12799;BME280;19250;42.646;26.980;2023-02-14T06:50:56;100133.38;;;5.97;70.28
12799;BME280;19250;42.646;26.980;2023-02-14T06:53:23;100129.88;;;6.48;69.31
12799;BME280;19250;42.646;26.980;2023-02-14T06:55:51;100135.38;;;6.58;68.51
12799;BME280;19250;42.646;26.980;2023-02-14T06:58:18;100138.16;;;6.82;69.27
12799;BME280;19250;42.646;26.980;2023-02-14T07:00:45;100131.31;;;7.16;66.07
12799;BME280;19250;42.646;26.980;2023-02-14T07:03:15;100134.22;;;6.49;68.08
12799;BME280;19250;42.646;26.980;2023-02-14T07:05:42;100131.47;;;6.89;67.44
12799;BME280;19250;42.646;26.980;2023-02-14T07:08:10;100134.97;;;6.77;68.43
12799;BME280;19250;42.646;26.980;2023-02-14T07:10:37;100127.81;;;7.99;62.15
12799;BME280;19250;42.646;26.980;2023-02-14T07:13:04;100134.41;;;8.41;58.60
12799;BME280;19250;42.646;26.980;2023-02-14T07:15:32;100129.31;;;8.14;58.49
12799;BME280;19250;42.646;26.980;2023-02-14T07:17:59;100134.00;;;7.76;61.22
12799;BME280;19250;42.646;26.980;2023-02-14T07:20:28;100129.00;;;7.47;61.77
12799;BME280;19250;42.646;26.980;2023-02-14T07:22:55;100128.81;;;7.38;63.25
12799;BME280;19250;42.646;26.980;2023-02-14T07:25:23;100154.47;;;7.50;62.67
12799;BME280;19250;42.646;26.980;2023-02-14T07:27:53;100148.56;;;7.94;60.33
12799;BME280;19250;42.646;26.980;2023-02-14T07:30:20;100141.25;;;6.63;63.57
12799;BME280;19250;42.646;26.980;2023-02-14T07:32:47;100148.81;;;6.17;67.92
12799;BME280;19250;42.646;26.980;2023-02-14T07:35:15;100154.28;;;6.66;65.74
12799;BME280;19250;42.646;26.980;2023-02-14T07:37:44;100074.25;;;6.23;65.50
12799;BME280;19250;42.646;26.980;2023-02-14T07:40:11;100144.91;;;6.98;64.32
12799;BME280;19250;42.646;26.980;2023-02-14T07:42:39;100144.03;;;7.83;60.33
12799;BME280;19250;42.646;26.980;2023-02-14T07:45:07;100138.81;;;8.29;58.97
12799;BME280;19250;42.646;26.980;2023-02-14T07:47:34;100136.63;;;8.91;56.48
12799;BME280;19250;42.646;26.980;2023-02-14T07:50:02;100149.34;;;9.32;53.73
12799;BME280;19250;42.646;26.980;2023-02-14T07:52:29;100152.03;;;7.47;59.79
12799;BME280;19250;42.646;26.980;2023-02-14T07:54:58;100144.06;;;6.98;62.51
12799;BME280;19250;42.646;26.980;2023-02-14T07:57:25;100149.72;;;8.13;58.54
12799;BME280;19250;42.646;26.980;2023-02-14T07:59:52;100145.47;;;9.03;54.29
12799;BME280;19250;42.646;26.980;2023-02-14T08:02:19;100139.66;;;8.98;52.06
12799;BME280;19250;42.646;26.980;2023-02-14T08:04:47;100146.66;;;8.88;55.53
12799;BME280;19250;42.646;26.980;2023-02-14T08:07:14;100138.19;;;9.27;53.12
12799;BME280;19250;42.646;26.980;2023-02-14T08:09:41;100131.13;;;10.02;50.56
12799;BME280;19250;42.646;26.980;2023-02-14T08:12:10;100136.38;;;9.05;53.41
12799;BME280;19250;42.646;26.980;2023-02-14T08:14:54;100128.31;;;10.04;51.38
12799;BME280;19250;42.646;26.980;2023-02-14T08:17:42;100124.91;;;9.81;51.87
12799;BME280;19250;42.646;26.980;2023-02-14T08:20:10;100132.22;;;9.68;52.49
12799;BME280;19250;42.646;26.980;2023-02-14T08:22:37;100136.81;;;9.66;51.96
12799;BME280;19250;42.646;26.980;2023-02-14T08:25:05;100129.44;;;10.33;49.42
12799;BME280;19250;42.646;26.980;2023-02-14T08:27:34;100135.69;;;10.64;48.12
12799;BME280;19250;42.646;26.980;2023-02-14T08:30:01;100130.59;;;10.19;48.82
12799;BME280;19250;42.646;26.980;2023-02-14T08:32:28;100128.53;;;10.44;48.40
12799;BME280;19250;42.646;26.980;2023-02-14T08:34:56;100136.31;;;10.77;47.42
12799;BME280;19250;42.646;26.980;2023-02-14T08:37:23;100129.84;;;11.00;46.22
12799;BME280;19250;42.646;26.980;2023-02-14T08:39:50;100121.78;;;11.21;45.83
12799;BME280;19250;42.646;26.980;2023-02-14T08:42:17;100125.66;;;10.35;47.48
12799;BME280;19250;42.646;26.980;2023-02-14T08:44:46;100118.34;;;11.09;46.31
12799;BME280;19250;42.646;26.980;2023-02-14T08:47:13;100119.38;;;11.67;44.21
12799;BME280;19250;42.646;26.980;2023-02-14T08:49:40;100112.59;;;11.63;44.11
12799;BME280;19250;42.646;26.980;2023-02-14T08:52:08;100127.69;;;11.24;43.92
12799;BME280;19250;42.646;26.980;2023-02-14T08:54:35;100119.75;;;11.04;45.22
12799;BME280;19250;42.646;26.980;2023-02-14T08:57:02;100117.28;;;11.80;42.75
12799;BME280;19250;42.646;26.980;2023-02-14T08:59:30;100120.53;;;11.84;42.45
12799;BME280;19250;42.646;26.980;2023-02-14T09:01:59;100121.41;;;12.04;41.86
12799;BME280;19250;42.646;26.980;2023-02-14T09:04:26;100108.44;;;12.47;40.98
12799;BME280;19250;42.646;26.980;2023-02-14T09:06:53;100109.28;;;12.94;39.99
12799;BME280;19250;42.646;26.980;2023-02-14T09:09:20;100108.53;;;12.55;40.36
12799;BME280;19250;42.646;26.980;2023-02-14T09:11:48;100104.66;;;11.82;41.92
12799;BME280;19250;42.646;26.980;2023-02-14T09:14:15;100097.31;;;11.84;41.77
12799;BME280;19250;42.646;26.980;2023-02-14T09:16:42;100092.28;;;12.00;41.34
12799;BME280;19250;42.646;26.980;2023-02-14T09:19:11;100108.16;;;12.02;40.86
12799;BME280;19250;42.646;26.980;2023-02-14T09:21:39;100105.88;;;12.45;39.77
12799;BME280;19250;42.646;26.980;2023-02-14T09:24:06;100100.63;;;12.63;39.56
12799;BME280;19250;42.646;26.980;2023-02-14T09:26:34;100094.03;;;12.48;39.63
12799;BME280;19250;42.646;26.980;2023-02-14T09:29:05;100093.50;;;11.77;40.77
12799;BME280;19250;42.646;26.980;2023-02-14T09:31:32;100100.41;;;11.21;42.57
12799;BME280;19250;42.646;26.980;2023-02-14T09:33:59;100087.91;;;12.09;41.08
12799;BME280;19250;42.646;26.980;2023-02-14T09:36:48;100087.03;;;12.47;39.99
12799;BME280;19250;42.646;26.980;2023-02-14T09:39:32;100079.72;;;12.39;39.88
12799;BME280;19250;42.646;26.980;2023-02-14T09:42:14;100084.69;;;11.77;40.85
12799;BME280;19250;42.646;26.980;2023-02-14T09:44:47;100083.91;;;11.65;40.66
12799;BME280;19250;42.646;26.980;2023-02-14T09:47:20;100066.13;;;11.26;41.38
12799;BME280;19250;42.646;26.980;2023-02-14T09:49:49;100082.75;;;11.39;41.56
12799;BME280;19250;42.646;26.980;2023-02-14T09:52:21;100046.44;;;11.17;41.59
12799;BME280;19250;42.646;26.980;2023-02-14T09:54:54;100033.78;;;11.19;41.81
12799;BME280;19250;42.646;26.980;2023-02-14T09:57:33;100079.63;;;12.78;39.43
12799;BME280;19250;42.646;26.980;2023-02-14T10:00:12;100068.16;;;12.85;38.28
12799;BME280;19250;42.646;26.980;2023-02-14T10:02:52;100069.69;;;12.88;37.56
12799;BME280;19250;42.646;26.980;2023-02-14T10:05:25;100074.34;;;12.49;38.56
12799;BME280;19250;42.646;26.980;2023-02-14T10:07:59;100053.25;;;14.00;36.73
12799;BME280;19250;42.646;26.980;2023-02-14T10:10:35;100032.81;;;14.07;36.00
12799;BME280;19250;42.646;26.980;2023-02-14T10:13:07;100044.19;;;13.83;35.92
12799;BME280;19250;42.646;26.980;2023-02-14T10:15:39;100046.44;;;12.61;37.82
12799;BME280;19250;42.646;26.980;2023-02-14T10:18:13;100045.28;;;12.08;38.59
12799;BME280;19250;42.646;26.980;2023-02-14T10:20:43;100012.75;;;12.12;38.48
12799;BME280;19250;42.646;26.980;2023-02-14T10:23:33;100048.38;;;12.13;38.69
12799;BME280;19250;42.646;26.980;2023-02-14T10:26:04;100047.50;;;12.78;37.62
12799;BME280;19250;42.646;26.980;2023-02-14T10:28:34;100031.09;;;11.88;38.70
12799;BME280;19250;42.646;26.980;2023-02-14T10:31:19;100033.88;;;11.86;39.39
12799;BME280;19250;42.646;26.980;2023-02-14T10:33:54;100030.72;;;12.76;37.70
12799;BME280;19250;42.646;26.980;2023-02-14T10:36:43;100024.03;;;13.79;35.85
12799;BME280;19250;42.646;26.980;2023-02-14T10:39:26;100020.00;;;13.75;35.28
12799;BME280;19250;42.646;26.980;2023-02-14T10:41:58;100033.88;;;12.15;37.49
12799;BME280;19250;42.646;26.980;2023-02-14T10:44:39;100023.19;;;12.06;38.72
12799;BME280;19250;42.646;26.980;2023-02-14T10:47:13;100019.81;;;12.13;38.97
12799;BME280;19250;42.646;26.980;2023-02-14T10:49:50;100020.50;;;13.26;36.72
12799;BME280;19250;42.646;26.980;2023-02-14T10:52:24;100007.94;;;13.08;36.59
12799;BME280;19250;42.646;26.980;2023-02-14T10:54:55;100007.91;;;14.14;34.80
12799;BME280;19250;42.646;26.980;2023-02-14T10:57:26;100016.00;;;12.99;36.11
12799;BME280;19250;42.646;26.980;2023-02-14T10:59:57;100014.34;;;13.16;36.70
12799;BME280;19250;42.646;26.980;2023-02-14T11:02:30;100004.28;;;13.80;35.22
12799;BME280;19250;42.646;26.980;2023-02-14T11:04:59;100017.91;;;14.48;34.37
12799;BME280;19250;42.646;26.980;2023-02-14T11:07:28;100007.72;;;14.85;33.17
12799;BME280;19250;42.646;26.980;2023-02-14T11:09:57;100007.88;;;15.42;32.62
12799;BME280;19250;42.646;26.980;2023-02-14T11:12:32;100003.63;;;16.05;30.98
12799;BME280;19250;42.646;26.980;2023-02-14T11:15:21;100007.44;;;16.98;30.05
12799;BME280;19250;42.646;26.980;2023-02-14T11:17:49;100000.66;;;17.41;29.42
12799;BME280;19250;42.646;26.980;2023-02-14T11:20:22;100003.03;;;17.05;29.14
12799;BME280;19250;42.646;26.980;2023-02-14T11:22:50;99965.44;;;16.02;30.12
12799;BME280;19250;42.646;26.980;2023-02-14T11:25:20;100013.25;;;15.34;31.43
12799;BME280;19250;42.646;26.980;2023-02-14T11:27:52;100003.41;;;15.66;31.64
12799;BME280;19250;42.646;26.980;2023-02-14T11:30:26;99999.19;;;16.37;30.92
12799;BME280;19250;42.646;26.980;2023-02-14T11:32:55;99991.41;;;16.66;30.32
12799;BME280;19250;42.646;26.980;2023-02-14T11:35:24;99951.38;;;16.55;29.98
12799;BME280;19250;42.646;26.980;2023-02-14T11:37:59;99988.28;;;16.93;29.95
12799;BME280;19250;42.646;26.980;2023-02-14T11:40:30;99966.53;;;17.25;29.05
12799;BME280;19250;42.646;26.980;2023-02-14T11:42:59;99971.97;;;16.23;30.38
12799;BME280;19250;42.646;26.980;2023-02-14T11:45:29;99975.28;;;16.42;30.28
12799;BME280;19250;42.646;26.980;2023-02-14T11:48:16;99976.34;;;15.02;31.63
12799;BME280;19250;42.646;26.980;2023-02-14T11:50:53;99971.94;;;15.43;31.83
12799;BME280;19250;42.646;26.980;2023-02-14T11:53:23;99931.78;;;16.06;30.73
12799;BME280;19250;42.646;26.980;2023-02-14T11:55:54;99958.53;;;15.67;31.04
12799;BME280;19250;42.646;26.980;2023-02-14T11:58:31;99959.06;;;15.62;31.46
12799;BME280;19250;42.646;26.980;2023-02-14T12:01:00;99962.56;;;15.63;30.84
12799;BME280;19250;42.646;26.980;2023-02-14T12:03:32;99951.09;;;15.37;31.20
12799;BME280;19250;42.646;26.980;2023-02-14T12:06:01;99962.75;;;14.53;33.07
12799;BME280;19250;42.646;26.980;2023-02-14T12:08:30;99962.97;;;15.10;32.27
12799;BME280;19250;42.646;26.980;2023-02-14T12:11:04;99960.44;;;14.58;33.08
12799;BME280;19250;42.646;26.980;2023-02-14T12:13:32;99963.75;;;14.52;33.20
12799;BME280;19250;42.646;26.980;2023-02-14T12:15:59;99967.25;;;13.40;34.58
12799;BME280;19250;42.646;26.980;2023-02-14T12:18:39;99935.09;;;12.50;36.39
12799;BME280;19250;42.646;26.980;2023-02-14T12:21:39;99977.53;;;12.90;36.36
12799;BME280;19250;42.646;26.980;2023-02-14T12:24:16;99981.09;;;12.81;36.90
12799;BME280;19250;42.646;26.980;2023-02-14T12:26:50;99969.72;;;12.79;37.46
12799;BME280;19250;42.646;26.980;2023-02-14T12:29:22;99969.91;;;13.23;36.92
12799;BME280;19250;42.646;26.980;2023-02-14T12:31:53;99961.72;;;13.77;36.10
12799;BME280;19250;42.646;26.980;2023-02-14T12:34:22;99972.56;;;13.93;35.55
12799;BME280;19250;42.646;26.980;2023-02-14T12:37:04;99976.00;;;12.88;36.99
12799;BME280;19250;42.646;26.980;2023-02-14T12:39:37;99946.22;;;12.73;37.21
12799;BME280;19250;42.646;26.980;2023-02-14T12:42:21;99969.31;;;13.46;35.42
12799;BME280;19250;42.646;26.980;2023-02-14T12:45:03;99966.34;;;14.36;33.80
12799;BME280;19250;42.646;26.980;2023-02-14T12:47:38;99937.66;;;15.29;32.69
12799;BME280;19250;42.646;26.980;2023-02-14T12:50:23;99962.00;;;15.19;33.04
12799;BME280;19250;42.646;26.980;2023-02-14T12:53:20;99937.31;;;16.20;31.32
12799;BME280;19250;42.646;26.980;2023-02-14T12:55:58;99958.91;;;15.80;32.16
12799;BME280;19250;42.646;26.980;2023-02-14T12:58:42;99966.22;;;16.34;30.70
12799;BME280;19250;42.646;26.980;2023-02-14T13:01:46;99940.06;;;15.56;31.62
12799;BME280;19250;42.646;26.980;2023-02-14T13:04:37;99975.25;;;16.66;30.37
12799;BME280;19250;42.646;26.980;2023-02-14T13:07:13;99938.53;;;16.02;30.94
12799;BME280;19250;42.646;26.980;2023-02-14T13:09:47;99963.81;;;15.10;32.24
12799;BME280;19250;42.646;26.980;2023-02-14T13:12:29;99960.63;;;15.15;32.10
12799;BME280;19250;42.646;26.980;2023-02-14T13:15:10;99965.03;;;14.23;34.50
12799;BME280;19250;42.646;26.980;2023-02-14T13:17:43;99947.84;;;13.64;35.69
12799;BME280;19250;42.646;26.980;2023-02-14T13:20:37;99967.53;;;13.20;36.59